Time;durP1;ratioP1;P1;durP2;ratioP2;P2;SDS_P1;SDS_P2;PMS_P1;PMS_P2;Temp;Humidity;BMP_temperature;BMP_pressure;BME280_temperature;BME280_humidity;BME280_pressure;Samples;Min_cycle;Max_cycle;Signal;HPM_P1;HPM_P2
2022/12/22 03:26:34;;;;;;;28.63;15.73;;;;;;;9.07;100.00;100129.22;4920413;29;20091;-75
2022/12/22 03:29:01;;;;;;;23.63;15.65;;;;;;;9.08;100.00;100125.69;4913467;29;20900;-74
2022/12/22 03:31:29;;;;;;;24.05;15.93;;;;;;;9.08;100.00;100123.06;4914288;29;20040;-74
2022/12/22 03:33:56;;;;;;;26.88;15.40;;;;;;;9.08;100.00;100123.91;4925846;29;20115;-73
2022/12/22 03:36:23;;;;;;;25.27;15.98;;;;;;;9.10;100.00;100126.50;4920441;29;20048;-74
2022/12/22 03:38:50;;;;;;;22.08;15.93;;;;;;;9.11;100.00;100123.81;4913351;29;20051;-75
2022/12/22 03:46:49;;;;;;;22.98;15.60;;;;;;;9.11;100.00;100112.41;4912715;29;20044;-75
2022/12/22 03:49:18;;;;;;;23.15;15.55;;;;;;;9.12;100.00;100106.22;4920818;29;20048;-75
2022/12/22 03:51:48;;;;;;;35.42;16.73;;;;;;;9.11;100.00;100099.25;4913867;29;20483;-75
2022/12/22 03:54:26;;;;;;;31.33;15.52;;;;;;;9.10;100.00;100100.19;4926418;29;20077;-76
2022/12/22 03:56:53;;;;;;;30.70;14.90;;;;;;;9.09;100.00;100098.47;4924005;29;20787;-73
2022/12/22 03:59:20;;;;;;;41.70;16.13;;;;;;;9.07;100.00;100106.41;4915970;29;20044;-73
2022/12/22 04:01:53;;;;;;;20.08;15.27;;;;;;;9.06;100.00;100106.47;4918786;29;20479;-74
2022/12/22 04:04:25;;;;;;;23.67;15.13;;;;;;;9.04;100.00;100101.28;4903966;29;20137;-72
2022/12/22 04:06:53;;;;;;;52.97;17.23;;;;;;;9.02;100.00;100101.31;4909503;29;20040;-72
2022/12/22 04:09:21;;;;;;;29.00;15.68;;;;;;;9.02;100.00;100100.47;4912437;29;20047;-72
2022/12/22 04:14:34;;;;;;;39.22;16.45;;;;;;;8.95;100.00;100086.69;4914116;29;20080;-74
2022/12/22 04:17:04;;;;;;;22.85;14.90;;;;;;;8.93;100.00;100077.97;4909479;29;20053;-75
2022/12/22 04:19:32;;;;;;;37.60;15.43;;;;;;;8.93;100.00;100075.34;4920880;29;20059;-74
2022/12/22 04:22:00;;;;;;;98.97;17.52;;;;;;;8.91;100.00;100073.69;4911732;29;20052;-77
2022/12/22 04:24:27;;;;;;;68.68;15.60;;;;;;;8.86;100.00;100068.59;4925809;29;20048;-77
2022/12/22 04:26:54;;;;;;;26.67;14.23;;;;;;;8.85;100.00;100066.88;4904058;29;20419;-77
2022/12/22 04:29:24;;;;;;;32.83;15.55;;;;;;;8.85;100.00;100061.63;4899445;29;20037;-77
2022/12/22 04:31:51;;;;;;;22.20;15.27;;;;;;;8.85;100.00;100057.22;4916130;29;20041;-77
2022/12/22 04:34:20;;;;;;;22.52;13.63;;;;;;;8.86;100.00;100058.09;4921018;29;20049;-77
2022/12/22 04:36:47;;;;;;;30.48;15.68;;;;;;;8.86;100.00;100064.19;4912699;29;20048;-73
2022/12/22 04:39:14;;;;;;;22.23;15.05;;;;;;;8.88;100.00;100058.91;4919134;29;20054;-74
2022/12/22 04:41:41;;;;;;;35.15;16.25;;;;;;;8.88;100.00;100058.91;4924526;29;20044;-73
2022/12/22 04:44:08;;;;;;;80.30;15.52;;;;;;;8.89;100.00;100065.00;4923698;29;20048;-73
2022/12/22 04:46:35;;;;;;;46.03;16.65;;;;;;;8.89;100.00;100060.63;4923904;29;20041;-78
2022/12/22 04:49:03;;;;;;;29.00;15.23;;;;;;;8.88;100.00;100058.91;4917519;29;20070;-78
2022/12/22 04:51:31;;;;;;;22.63;14.98;;;;;;;8.85;100.00;100064.25;4921626;29;20172;-78
2022/12/22 04:53:58;;;;;;;90.15;18.92;;;;;;;8.86;100.00;100071.22;4919485;29;20127;-78
2022/12/22 04:56:25;;;;;;;64.22;17.30;;;;;;;8.85;100.00;100067.72;4917671;29;20051;-78
2022/12/22 04:58:52;;;;;;;78.97;16.90;;;;;;;8.88;100.00;100065.91;4923415;29;20089;-78
2022/12/22 05:01:20;;;;;;;39.80;15.25;;;;;;;8.88;100.00;100076.44;4931459;29;20041;-78
2022/12/22 05:03:47;;;;;;;27.67;15.60;;;;;;;8.90;100.00;100071.97;4917120;29;20068;-80
2022/12/22 05:06:15;;;;;;;142.73;19.50;;;;;;;8.93;100.00;100080.59;4916289;29;20096;-80
2022/12/22 05:08:42;;;;;;;302.45;24.73;;;;;;;8.92;100.00;100093.81;4916304;29;20423;-80
2022/12/22 05:11:09;;;;;;;69.65;16.20;;;;;;;8.92;100.00;100086.78;4913152;29;20052;-80
2022/12/22 05:13:37;;;;;;;111.30;18.48;;;;;;;8.93;100.00;100096.38;4924521;29;20047;-78
2022/12/22 05:16:10;;;;;;;67.82;16.80;;;;;;;8.94;100.00;100089.38;4924216;29;20101;-76
2022/12/22 05:18:39;;;;;;;60.53;16.33;;;;;;;8.94;100.00;100082.31;4923221;28;20064;-76
2022/12/22 05:21:11;;;;;;;71.10;17.00;;;;;;;8.93;100.00;100083.25;4934767;29;20073;-75
2022/12/22 05:23:38;;;;;;;188.93;20.52;;;;;;;8.93;100.00;100083.25;4917131;29;20055;-76
2022/12/22 05:26:06;;;;;;;406.33;28.15;;;;;;;8.91;100.00;100076.31;4935926;29;20052;-79
2022/12/22 05:28:34;;;;;;;276.67;22.15;;;;;;;8.89;100.00;100076.41;4934097;29;20032;-79
2022/12/22 05:31:09;;;;;;;105.60;18.02;;;;;;;8.88;100.00;100068.53;4938778;28;20044;-78
2022/12/22 05:33:36;;;;;;;75.10;15.63;;;;;;;8.89;100.00;100078.16;4939206;28;20048;-81
2022/12/22 05:36:04;;;;;;;230.65;19.17;;;;;;;8.88;100.00;100077.31;4943702;28;20044;-81
2022/12/22 05:38:35;;;;;;;467.65;30.02;;;;;;;8.89;100.00;100073.75;4942888;28;21082;-81
2022/12/22 05:41:02;;;;;;;380.67;26.52;;;;;;;8.85;100.00;100083.50;4934802;29;20051;-77
2022/12/22 05:43:32;;;;;;;189.88;20.02;;;;;;;8.83;100.00;100087.09;4931556;28;20093;-79
2022/12/22 05:46:03;;;;;;;233.57;21.13;;;;;;;8.84;100.00;100083.56;4932770;28;20040;-80
2022/12/22 05:48:31;;;;;;;254.18;21.27;;;;;;;8.82;100.00;100091.50;4937773;28;20048;-81
2022/12/22 05:51:09;;;;;;;132.07;16.60;;;;;;;8.80;100.00;100095.13;4936028;28;20151;-80
2022/12/22 05:53:37;;;;;;;221.27;20.25;;;;;;;8.79;100.00;100088.13;4934822;28;20040;-79
2022/12/22 05:56:06;;;;;;;66.63;16.55;;;;;;;8.78;100.00;100099.56;4943648;28;20048;-79
2022/12/22 05:58:37;;;;;;;263.23;22.90;;;;;;;8.78;100.00;100096.94;4936042;28;20131;-78
2022/12/22 06:01:08;;;;;;;49.20;15.48;;;;;;;8.77;100.00;100093.44;4937139;28;20038;-79
2022/12/22 06:03:41;;;;;;;274.75;24.17;;;;;;;8.78;100.00;100103.03;4936103;28;20044;-78
2022/12/22 06:06:09;;;;;;;174.07;19.83;;;;;;;8.75;100.00;100104.91;4942981;28;20040;-79
2022/12/22 06:08:36;;;;;;;288.33;25.60;;;;;;;8.74;100.00;100108.44;4940785;28;20066;-78
2022/12/22 06:11:03;;;;;;;83.93;15.75;;;;;;;8.73;100.00;100110.22;4941629;28;20051;-78
2022/12/22 06:13:31;;;;;;;266.25;20.73;;;;;;;8.73;100.00;100112.00;4942066;28;21235;-78
2022/12/22 06:15:58;;;;;;;103.53;16.67;;;;;;;8.73;100.00;100110.22;4942316;28;20554;-76
2022/12/22 06:18:25;;;;;;;53.90;15.30;;;;;;;8.75;100.00;100107.53;4944993;28;20044;-76
2022/12/22 06:20:53;;;;;;;131.00;19.38;;;;;;;8.76;100.00;100117.16;4936906;28;20040;-74
2022/12/22 06:23:21;;;;;;;160.00;19.42;;;;;;;8.74;100.00;100127.72;4945991;28;20110;-74
2022/12/22 06:26:00;;;;;;;108.13;17.40;;;;;;;8.75;100.00;100133.81;4939151;28;20058;-75
2022/12/22 06:28:28;;;;;;;117.38;19.60;;;;;;;8.74;100.00;100137.34;4932358;29;20915;-74
2022/12/22 06:30:55;;;;;;;120.72;20.67;;;;;;;8.74;100.00;100143.50;4931937;29;20123;-74
2022/12/22 06:33:22;;;;;;;127.07;18.60;;;;;;;8.73;100.00;100154.03;4939958;28;20119;-74
2022/12/22 06:35:52;;;;;;;108.78;19.75;;;;;;;8.73;100.00;100156.66;4933290;29;20052;-74
2022/12/22 06:38:27;;;;;;;187.60;23.35;;;;;;;8.70;100.00;100157.63;4944850;28;20808;-74
2022/12/22 06:40:57;;;;;;;137.57;21.42;;;;;;;8.72;100.00;100165.44;4941126;28;20095;-74
2022/12/22 06:43:44;;;;;;;81.57;17.92;;;;;;;8.70;100.00;100168.16;4944284;28;20135;-74
2022/12/22 06:46:11;;;;;;;80.03;18.65;;;;;;;8.69;100.00;100175.19;4938032;28;20105;-74
2022/12/22 06:48:38;;;;;;;51.83;17.05;;;;;;;8.68;100.00;100183.97;4935932;28;20092;-75
2022/12/22 06:51:06;;;;;;;44.42;16.33;;;;;;;8.68;100.00;100183.97;4917029;29;20044;-75
2022/12/22 06:53:33;;;;;;;39.95;15.52;;;;;;;8.70;100.00;100192.63;4933972;29;20052;-75
2022/12/22 06:56:04;;;;;;;40.10;15.85;;;;;;;8.71;100.00;100193.50;4937468;28;20060;-75
2022/12/22 06:58:31;;;;;;;41.40;15.77;;;;;;;8.72;100.00;100195.22;4934555;29;20056;-72
2022/12/22 07:00:58;;;;;;;35.40;14.25;;;;;;;8.76;100.00;100191.56;4932603;28;20068;-72
2022/12/22 07:03:25;;;;;;;29.23;14.15;;;;;;;8.76;100.00;100190.72;4928033;29;20048;-72
2022/12/22 07:05:52;;;;;;;25.98;13.00;;;;;;;8.77;100.00;100202.97;4917090;28;20076;-73
2022/12/22 07:08:19;;;;;;;20.92;11.85;;;;;;;8.79;100.00;100214.28;4933637;28;20093;-74
2022/12/22 07:10:59;;;;;;;19.65;11.25;;;;;;;8.79;100.00;100211.66;4934029;29;20055;-74
2022/12/22 07:13:33;;;;;;;18.92;11.00;;;;;;;8.80;100.00;100221.28;4934089;29;20040;-75
2022/12/22 07:16:02;;;;;;;;;;;;;;;8.78;100.00;100218.69;4932600;29;20047;-76
2022/12/22 07:18:33;;;;;;;17.48;10.65;;;;;;;8.78;100.00;100221.31;4934268;29;19949;-75
2022/12/22 07:21:04;;;;;;;24.42;12.45;;;;;;;8.77;100.00;100226.63;4934229;29;20108;-75
2022/12/22 07:23:39;;;;;;;23.95;12.63;;;;;;;8.79;100.00;100230.91;4931871;28;20040;-76
2022/12/22 07:26:08;;;;;;;23.23;12.80;;;;;;;8.79;100.00;100235.31;4933890;29;20048;-75
2022/12/22 07:28:39;;;;;;;25.33;13.20;;;;;;;8.80;100.00;100252.81;4933874;29;20036;-75
2022/12/22 07:31:08;;;;;;;26.55;13.73;;;;;;;8.79;100.00;100253.72;4933590;29;20100;-76
2022/12/22 07:33:37;;;;;;;31.35;14.18;;;;;;;8.78;100.00;100255.47;4934132;29;20100;-76
2022/12/22 07:36:13;;;;;;;32.22;15.05;;;;;;;8.78;100.00;100257.25;4931978;29;20522;-75
2022/12/22 07:38:46;;;;;;;29.35;14.38;;;;;;;8.81;100.00;100259.75;4933901;29;20131;-76
2022/12/22 07:44:03;;;;;;;30.90;15.30;;;;;;;8.79;100.00;100265.06;4932091;29;20048;-76
2022/12/22 07:46:36;;;;;;;34.50;15.55;;;;;;;8.80;100.00;100258.06;4933239;28;20506;-76
2022/12/22 07:51:51;;;;;;;38.92;17.15;;;;;;;8.78;100.00;100255.47;4952881;28;20123;-75
2022/12/22 07:54:18;;;;;;;34.17;15.48;;;;;;;8.79;100.00;100253.72;4953151;28;20048;-75
2022/12/22 07:56:46;;;;;;;35.13;15.95;;;;;;;8.80;100.00;100260.69;4936733;28;20044;-76
2022/12/22 07:59:15;;;;;;;34.05;15.73;;;;;;;8.80;100.00;100264.16;4933451;29;20137;-75
2022/12/22 08:01:44;;;;;;;33.58;15.32;;;;;;;8.79;100.00;100266.84;4930638;29;20040;-75
2022/12/22 08:04:13;;;;;;;28.70;15.00;;;;;;;8.80;100.00;100279.09;4932877;29;20056;-74
2022/12/22 08:06:41;;;;;;;33.05;15.27;;;;;;;8.76;100.00;100288.81;4933815;29;20051;-75
2022/12/22 08:09:15;;;;;;;33.13;15.68;;;;;;;8.75;100.00;100288.88;4933544;29;20040;-75
2022/12/22 08:11:42;;;;;;;30.80;15.00;;;;;;;8.75;100.00;100296.75;4933227;28;20044;-74
2022/12/22 08:14:10;;;;;;;30.67;14.57;;;;;;;8.75;100.00;100309.91;4932816;29;20056;-74
2022/12/22 08:16:37;;;;;;;31.52;15.27;;;;;;;8.73;100.00;100303.81;4932868;29;20120;-74
2022/12/22 08:19:04;;;;;;;34.25;15.57;;;;;;;8.74;100.00;100316.06;4932630;29;20060;-74
2022/12/22 08:21:31;;;;;;;34.30;15.55;;;;;;;8.76;100.00;100320.34;4932922;29;20040;-74
2022/12/22 08:23:58;;;;;;;32.70;15.38;;;;;;;8.78;100.00;100334.31;4932452;29;20123;-74
2022/12/22 08:26:35;;;;;;;31.40;15.20;;;;;;;8.75;100.00;100346.69;4931030;28;20040;-74
2022/12/22 08:29:28;;;;;;;33.75;15.95;;;;;;;8.71;100.00;100351.19;4932480;29;20055;-74
2022/12/22 08:31:56;;;;;;;35.47;16.77;;;;;;;8.69;100.00;100355.63;4933084;29;20048;-74
2022/12/22 08:34:23;;;;;;;39.17;16.85;;;;;;;8.70;100.00;100367.88;4932524;29;20052;-75
2022/12/22 08:36:58;;;;;;;41.25;18.30;;;;;;;8.69;100.00;100369.66;4933008;29;20044;-76
2022/12/22 08:39:33;;;;;;;47.60;18.00;;;;;;;8.66;100.00;100369.72;4932662;29;20701;-75
2022/12/22 08:42:08;;;;;;;43.25;17.63;;;;;;;8.66;100.00;100388.13;4913389;29;20052;-75
2022/12/22 08:44:37;;;;;;;42.97;17.60;;;;;;;8.66;100.00;100392.50;4913768;29;20045;-76
2022/12/22 08:47:05;;;;;;;53.42;19.33;;;;;;;8.65;100.00;100386.41;4913887;29;20498;-76
2022/12/22 08:49:41;;;;;;;46.05;18.67;;;;;;;8.63;100.00;100388.22;4913657;29;20485;-75
2022/12/22 08:52:08;;;;;;;56.53;19.40;;;;;;;8.62;100.00;100393.50;4913879;29;20045;-76
2022/12/22 08:54:44;;;;;;;48.75;18.45;;;;;;;8.62;100.00;100390.88;4913273;29;20949;-75
2022/12/22 08:57:11;;;;;;;52.15;18.30;;;;;;;8.63;100.00;100403.13;4917404;28;20048;-75
2022/12/22 08:59:38;;;;;;;48.92;17.52;;;;;;;8.65;100.00;100410.03;4932608;29;20100;-76
2022/12/22 09:02:06;;;;;;;46.75;17.60;;;;;;;8.65;100.00;100417.94;4933083;29;20036;-76
2022/12/22 09:04:34;;;;;;;46.45;18.27;;;;;;;8.69;100.00;100419.56;4932744;29;20048;-75
2022/12/22 09:07:01;;;;;;;46.10;18.00;;;;;;;8.74;100.00;100414.19;4932770;29;20040;-76
2022/12/22 09:09:34;;;;;;;47.95;18.67;;;;;;;8.79;100.00;100414.91;4931736;28;20066;-76
2022/12/22 09:12:02;;;;;;;48.17;18.35;;;;;;;8.84;100.00;100420.00;4930614;29;20765;-76
2022/12/22 09:14:31;;;;;;;48.65;19.27;;;;;;;8.87;100.00;100433.06;4932590;29;20514;-76
2022/12/22 09:16:58;;;;;;;49.53;18.02;;;;;;;8.89;100.00;100435.66;4932585;29;20139;-76
2022/12/22 09:19:25;;;;;;;52.58;19.30;;;;;;;8.87;100.00;100443.59;4914416;29;20049;-76
2022/12/22 09:21:54;;;;;;;50.13;17.63;;;;;;;8.88;100.00;100457.56;4913517;29;20037;-76
2022/12/22 09:24:21;;;;;;;47.28;17.23;;;;;;;8.86;100.00;100452.38;4913069;29;20133;-75
2022/12/22 09:26:48;;;;;;;45.47;17.17;;;;;;;8.83;100.00;100458.59;4913096;29;20080;-76
2022/12/22 09:29:15;;;;;;;47.85;17.75;;;;;;;8.83;100.00;100468.22;4913439;29;20073;-75
2022/12/22 09:31:43;;;;;;;39.15;15.48;;;;;;;8.85;100.00;100469.06;4913202;29;20056;-75
2022/12/22 09:34:11;;;;;;;39.22;15.70;;;;;;;8.81;100.00;100477.91;4913542;29;20064;-74
2022/12/22 09:36:45;;;;;;;42.03;16.90;;;;;;;8.76;100.00;100474.59;4913358;29;20048;-75
2022/12/22 09:39:13;;;;;;;40.65;17.40;;;;;;;8.71;99.62;100477.34;4912977;29;20115;-75
2022/12/22 09:41:51;;;;;;;42.35;17.17;;;;;;;8.67;100.00;100478.31;4912363;29;20040;-75
2022/12/22 09:44:35;;;;;;;43.50;17.42;;;;;;;8.64;100.00;100484.53;4913146;29;20040;-75
2022/12/22 09:47:29;;;;;;;42.53;16.33;;;;;;;8.64;100.00;100488.94;4912982;29;20041;-76
2022/12/22 09:49:57;;;;;;;41.10;16.83;;;;;;;8.64;99.62;100497.66;4912884;29;20048;-75
2022/12/22 09:52:38;;;;;;;40.60;17.02;;;;;;;8.67;99.39;100497.59;4912924;29;20885;-75
2022/12/22 09:55:36;;;;;;;45.35;18.45;;;;;;;8.70;99.49;100500.13;4912671;29;20873;-74
2022/12/22 09:58:25;;;;;;;38.95;16.77;;;;;;;8.63;99.61;100498.56;4897115;29;20049;-75
2022/12/22 10:01:21;;;;;;;39.20;17.17;;;;;;;8.64;99.24;100505.56;4893859;29;20086;-75
2022/12/22 10:04:07;;;;;;;37.08;17.30;;;;;;;8.66;99.24;100506.38;4894100;29;20854;-75
2022/12/22 10:07:09;;;;;;;40.55;16.80;;;;;;;8.70;98.88;100499.25;4896080;29;20452;-75
2022/12/22 10:09:36;;;;;;;38.25;16.73;;;;;;;8.69;98.53;100497.53;4897466;29;20044;-74
2022/12/22 10:12:24;;;;;;;38.30;16.92;;;;;;;8.69;98.56;100503.69;4916238;29;20044;-74
2022/12/22 10:14:54;;;;;;;39.33;16.88;;;;;;;8.75;98.45;100496.50;4915901;29;20049;-75
2022/12/22 10:17:32;;;;;;;42.92;17.10;;;;;;;8.79;98.56;100492.91;4917565;28;20410;-75
2022/12/22 10:20:20;;;;;;;39.22;17.05;;;;;;;8.80;98.10;100490.22;4935307;29;20048;-74
2022/12/22 10:22:57;;;;;;;36.60;17.42;;;;;;;8.78;98.76;100502.53;4934911;29;20044;-75
2022/12/22 10:25:39;;;;;;;42.05;16.92;;;;;;;8.79;98.61;100491.13;4934848;28;20469;-74
2022/12/22 10:28:34;;;;;;;37.78;16.15;;;;;;;8.79;98.75;100496.38;4935365;29;20044;-74
2022/12/22 10:31:18;;;;;;;36.58;15.55;;;;;;;8.76;98.06;100500.88;4935505;29;20044;-74
2022/12/22 10:33:55;;;;;;;37.13;16.95;;;;;;;8.72;98.49;100509.72;4934662;29;20044;-73
2022/12/22 10:36:31;;;;;;;33.35;15.07;;;;;;;8.73;98.02;100525.47;4934469;29;20132;-75
2022/12/22 10:39:02;;;;;;;33.28;15.35;;;;;;;8.79;97.82;100529.69;4934571;29;20048;-74
2022/12/22 10:41:42;;;;;;;32.78;14.00;;;;;;;8.81;97.45;100527.88;4924866;28;20079;-74
2022/12/22 10:44:16;;;;;;;31.83;14.60;;;;;;;8.81;97.64;100522.59;4934785;29;20059;-74
2022/12/22 10:46:53;;;;;;;32.50;14.10;;;;;;;8.89;97.38;100530.28;4934833;29;20039;-74
2022/12/22 10:49:27;;;;;;;29.20;14.25;;;;;;;8.92;97.12;100524.94;4934365;29;20046;-74
2022/12/22 10:52:38;;;;;;;27.45;13.65;;;;;;;8.99;96.58;100531.75;4934767;29;20038;-74
2022/12/22 10:55:21;;;;;;;31.77;14.43;;;;;;;9.02;96.77;100527.25;4934043;28;20513;-74
2022/12/22 10:57:49;;;;;;;31.17;13.73;;;;;;;9.07;96.64;100521.88;4914648;29;20047;-74
2022/12/22 11:00:30;;;;;;;29.83;13.65;;;;;;;9.20;97.05;100530.28;4915228;29;20048;-74
2022/12/22 11:03:01;;;;;;;30.17;14.13;;;;;;;9.33;96.92;100534.25;4898470;29;20052;-74
2022/12/22 11:05:30;;;;;;;30.10;13.95;;;;;;;9.51;97.10;100537.25;4915157;29;20445;-74
2022/12/22 11:08:17;;;;;;;29.05;13.45;;;;;;;9.59;96.45;100551.03;4915595;29;20045;-74
2022/12/22 11:11:06;;;;;;;29.40;13.45;;;;;;;9.68;96.01;100541.13;4921085;28;20403;-74
2022/12/22 11:13:57;;;;;;;26.27;13.13;;;;;;;9.69;94.11;100559.47;4920535;29;20057;-75
2022/12/22 11:16:30;;;;;;;35.38;15.60;;;;;;;9.66;94.13;100554.34;4914854;29;20062;-74
2022/12/22 11:19:07;;;;;;;28.83;15.35;;;;;;;9.68;94.02;100564.81;4913470;29;20184;-73
2022/12/22 11:21:49;;;;;;;30.08;16.08;;;;;;;9.67;94.23;100565.72;4913712;29;20120;-73
2022/12/22 11:25:02;;;;;;;31.95;16.48;;;;;;;9.71;94.36;100560.31;4914577;29;20041;-76
2022/12/22 11:28:07;;;;;;;31.73;17.85;;;;;;;9.77;93.79;100564.53;4920993;29;20048;-74
2022/12/22 11:31:09;;;;;;;;;;;;;;;9.69;93.24;100566.53;4934404;29;20044;-73
2022/12/22 11:33:48;;;;;;;31.30;18.70;;;;;;;9.73;93.89;100570.78;4934346;29;20457;-74
2022/12/22 11:36:51;;;;;;;32.60;19.85;;;;;;;9.81;94.14;100575.81;4933943;29;20040;-75
2022/12/22 11:39:57;;;;;;;29.65;18.98;;;;;;;9.79;93.61;100581.97;4903662;29;20068;-73
2022/12/22 11:42:50;;;;;;;33.67;19.58;;;;;;;9.89;92.96;100579.94;4914548;29;20052;-74
2022/12/22 11:45:46;;;;;;;29.55;18.75;;;;;;;9.97;92.59;100578.81;4914543;29;20056;-75
2022/12/22 11:48:51;;;;;;;28.67;17.55;;;;;;;10.00;91.14;100573.47;4897386;29;20524;-75
2022/12/22 11:51:55;;;;;;;28.27;16.42;;;;;;;9.95;91.78;100578.88;4914746;29;20072;-74
2022/12/22 11:54:40;;;;;;;23.63;13.20;;;;;;;9.81;90.49;100581.97;4914344;29;20060;-75
2022/12/22 11:57:43;;;;;;;21.88;13.52;;;;;;;9.77;90.92;100585.59;4918508;29;20119;-73
2022/12/22 12:00:14;;;;;;;24.23;14.43;;;;;;;9.83;90.88;100590.63;4933559;29;20048;-74
2022/12/22 12:03:07;;;;;;;23.80;14.85;;;;;;;9.85;91.97;100582.72;4933749;29;20048;-73
2022/12/22 12:05:49;;;;;;;24.95;11.82;;;;;;;9.93;90.51;100591.22;4910832;29;20119;-74
2022/12/22 12:08:47;;;;;;;22.55;11.55;;;;;;;9.96;90.70;100588.50;4933672;29;20044;-74
2022/12/22 12:12:01;;;;;;;20.80;10.57;;;;;;;10.03;90.65;100581.25;4932742;29;20051;-73
2022/12/22 12:14:39;;;;;;;18.60;10.10;;;;;;;10.03;90.28;100582.13;4884301;29;20084;-73
2022/12/22 12:18:03;;;;;;;20.50;10.10;;;;;;;10.15;90.36;100585.28;4932494;28;20055;-74
2022/12/22 12:20:57;;;;;;;20.17;9.85;;;;;;;10.26;90.95;100576.09;4913303;29;20057;-74
2022/12/22 12:23:42;;;;;;;17.52;10.25;;;;;;;10.43;89.67;100568.56;4914859;29;20041;-72
2022/12/22 12:26:31;;;;;;;18.73;10.43;;;;;;;10.60;90.43;100563.56;4914079;29;20045;-73
2022/12/22 12:29:20;;;;;;;24.20;11.60;;;;;;;10.68;90.47;100558.03;4913461;29;20060;-74
2022/12/22 12:32:33;;;;;;;19.50;10.10;;;;;;;10.70;90.78;100562.34;4913636;29;20045;-74
2022/12/22 12:35:51;;;;;;;18.77;8.63;;;;;;;10.65;90.34;100555.50;4900423;29;20064;-74
2022/12/22 12:38:34;;;;;;;17.23;8.85;;;;;;;10.62;89.27;100559.13;4913959;29;20044;-74
2022/12/22 12:41:55;;;;;;;18.60;10.77;;;;;;;10.69;86.72;100562.41;4914088;29;20815;-74
2022/12/22 12:44:30;;;;;;;19.73;11.75;;;;;;;10.70;86.52;100566.75;4913960;29;20055;-74
2022/12/22 12:47:26;;;;;;;17.67;11.98;;;;;;;10.74;86.51;100567.50;4912782;29;20534;-75
2022/12/22 12:50:29;;;;;;;22.35;13.57;;;;;;;10.67;87.16;100556.31;4896606;29;20097;-75
2022/12/22 12:52:57;;;;;;;21.45;13.40;;;;;;;10.64;86.70;100553.78;4899963;29;20875;-75
2022/12/22 12:55:33;;;;;;;20.38;14.05;;;;;;;10.56;85.47;100562.81;4913481;29;20037;-75
2022/12/22 12:58:03;;;;;;;24.52;16.85;;;;;;;10.50;86.05;100560.41;4914009;29;20044;-76
2022/12/22 13:00:32;;;;;;;26.27;18.85;;;;;;;10.41;86.61;100555.47;4913618;29;20106;-76
2022/12/22 13:03:03;;;;;;;26.63;17.30;;;;;;;10.24;87.29;100546.31;4912767;29;20060;-75
2022/12/22 13:05:53;;;;;;;28.52;17.70;;;;;;;10.13;86.99;100550.22;4913652;29;20048;-75
2022/12/22 13:08:29;;;;;;;23.65;16.92;;;;;;;10.03;87.69;100560.19;4913944;29;20099;-75
2022/12/22 13:10:56;;;;;;;29.90;17.20;;;;;;;10.00;88.23;100557.66;4913019;29;20052;-74
2022/12/22 13:13:23;;;;;;;23.55;16.25;;;;;;;9.99;88.68;100555.94;4912300;29;20051;-73
2022/12/22 13:16:01;;;;;;;32.85;21.35;;;;;;;10.02;88.98;100559.34;4913139;29;20470;-74
2022/12/22 13:18:28;;;;;;;31.02;20.88;;;;;;;10.06;89.07;100552.19;4923650;29;20653;-73
2022/12/22 13:21:04;;;;;;;25.50;17.60;;;;;;;10.09;89.20;100547.66;4915609;29;20492;-74
2022/12/22 13:24:00;;;;;;;25.83;17.30;;;;;;;10.05;88.74;100553.09;4930137;29;20052;-73
2022/12/22 13:26:53;;;;;;;29.98;19.92;;;;;;;10.00;89.27;100558.50;4930981;29;20043;-73
2022/12/22 13:29:30;;;;;;;26.85;17.52;;;;;;;9.97;89.56;100568.28;4932374;28;20760;-74
2022/12/22 13:32:13;;;;;;;35.17;22.95;;;;;;;9.96;89.93;100570.06;4933107;28;20048;-73
2022/12/22 13:35:12;;;;;;;34.13;24.38;;;;;;;9.94;90.38;100571.88;4932470;28;20560;-73
2022/12/22 13:37:57;;;;;;;28.27;18.15;;;;;;;9.87;90.76;100568.59;4919483;28;20055;-74
2022/12/22 13:40:32;;;;;;;28.00;16.75;;;;;;;9.85;91.09;100575.66;4935599;28;20036;-72
2022/12/22 13:43:11;;;;;;;30.48;18.02;;;;;;;9.85;90.90;100570.41;4941646;28;20123;-72
2022/12/22 13:45:47;;;;;;;24.65;17.73;;;;;;;9.85;90.80;100572.19;4937681;28;20060;-72
2022/12/22 13:48:20;;;;;;;23.27;15.27;;;;;;;9.85;91.01;100567.75;4936366;28;20046;-73
2022/12/22 13:50:53;;;;;;;27.55;16.05;;;;;;;9.88;90.39;100566.78;4955341;28;20091;-74
2022/12/22 13:53:32;;;;;;;22.88;13.93;;;;;;;9.92;90.27;100556.13;4943153;28;20176;-73
2022/12/22 13:56:25;;;;;;;23.77;15.57;;;;;;;9.93;90.35;100560.47;4933319;28;20044;-72
2022/12/22 13:59:01;;;;;;;23.70;13.40;;;;;;;9.92;90.42;100557.91;4935941;28;20046;-73
2022/12/22 14:01:28;;;;;;;23.15;14.48;;;;;;;9.87;91.14;100565.94;4935158;29;20040;-72
2022/12/22 14:04:06;;;;;;;22.10;13.40;;;;;;;9.88;90.15;100551.00;4934925;29;20048;-73
2022/12/22 14:06:38;;;;;;;22.30;15.63;;;;;;;9.83;90.42;100545.88;4935540;29;20096;-73
2022/12/22 14:09:23;;;;;;;24.25;14.30;;;;;;;9.81;90.91;100544.22;4943422;28;20047;-73
2022/12/22 14:11:59;;;;;;;21.25;13.13;;;;;;;9.82;90.79;100546.78;4935025;29;20040;-75
2022/12/22 14:14:41;;;;;;;20.33;11.45;;;;;;;9.83;90.60;100531.88;4942799;28;20068;-72
2022/12/22 14:17:28;;;;;;;17.65;12.02;;;;;;;9.85;91.16;100536.16;4942434;28;20036;-74
2022/12/22 14:19:59;;;;;;;21.55;14.93;;;;;;;9.86;90.77;100531.78;4915168;29;20099;-71
2022/12/22 14:22:34;;;;;;;20.25;11.63;;;;;;;9.86;91.24;100527.38;4915479;29;20055;-72
2022/12/22 14:25:30;;;;;;;27.10;18.27;;;;;;;9.87;91.02;100529.09;4898310;29;20498;-71
2022/12/22 14:27:59;;;;;;;15.65;10.48;;;;;;;9.85;91.42;100528.28;4902391;29;20130;-72
2022/12/22 14:30:37;;;;;;;18.25;10.75;;;;;;;9.83;91.66;100524.81;4913958;29;20132;-72
2022/12/22 14:33:34;;;;;;;17.88;11.05;;;;;;;9.82;91.73;100520.47;4915171;29;20041;-72
2022/12/22 14:36:22;;;;;;;15.20;10.80;;;;;;;9.76;91.82;100518.91;4918392;29;20036;-71
2022/12/22 14:38:58;;;;;;;17.65;10.30;;;;;;;9.72;92.03;100519.03;4924494;29;20590;-73
2022/12/22 14:41:49;;;;;;;16.65;10.65;;;;;;;9.73;92.10;100524.28;4934652;29;20047;-73
2022/12/22 14:44:24;;;;;;;16.60;10.63;;;;;;;9.70;92.25;100526.16;4933220;29;20077;-72
2022/12/22 14:47:19;;;;;;;15.73;10.55;;;;;;;9.67;92.50;100520.97;4934567;29;20055;-72
2022/12/22 14:49:53;;;;;;;17.98;12.07;;;;;;;9.64;92.81;100516.66;4931343;29;20036;-72
2022/12/22 14:52:31;;;;;;;19.63;12.38;;;;;;;9.60;93.02;100504.50;4934317;29;20123;-74
2022/12/22 14:55:03;;;;;;;23.67;12.57;;;;;;;9.56;93.04;100505.53;4934087;29;20191;-73
2022/12/22 14:57:41;;;;;;;19.17;13.20;;;;;;;9.49;92.69;100499.59;4931872;29;20041;-74
2022/12/22 15:00:23;;;;;;;20.27;13.55;;;;;;;9.41;93.03;100493.72;4909860;29;20533;-73
2022/12/22 15:02:58;;;;;;;21.15;13.98;;;;;;;9.34;93.20;100493.03;4913269;29;20430;-74
2022/12/22 15:05:34;;;;;;;22.25;13.52;;;;;;;9.27;93.37;100494.09;4901812;29;20076;-74
2022/12/22 15:08:04;;;;;;;36.97;21.48;;;;;;;9.19;93.35;100491.72;4918220;29;20054;-75
2022/12/22 15:10:42;;;;;;;28.30;16.13;;;;;;;9.11;93.59;100489.31;4920828;29;20045;-75
2022/12/22 15:13:21;;;;;;;18.77;12.27;;;;;;;9.06;93.55;100483.31;4914412;29;20037;-75
2022/12/22 15:15:50;;;;;;;61.47;45.55;;;;;;;9.00;93.95;100480.88;4915210;29;20060;-73
2022/12/22 15:18:24;;;;;;;55.38;45.08;;;;;;;8.95;93.75;100491.53;4925757;28;20055;-72
2022/12/22 15:20:53;;;;;;;32.03;27.38;;;;;;;8.92;94.19;100491.63;4933850;28;20123;-72
2022/12/22 15:23:21;;;;;;;29.25;21.58;;;;;;;8.88;94.62;100490.00;4933721;29;20044;-72
2022/12/22 15:25:48;;;;;;;61.08;49.90;;;;;;;8.86;94.63;100489.19;4938976;28;20521;-73
2022/12/22 15:28:15;;;;;;;23.98;17.42;;;;;;;8.84;94.83;100477.84;4953048;28;20153;-74
2022/12/22 15:30:42;;;;;;;26.23;16.50;;;;;;;8.82;95.09;100487.53;4945924;28;20549;-73